sensor_id;sensor_type;location;lat;lon;timestamp;pressure;altitude;pressure_sealevel;temperature;humidity
16738;BME280;17906;47.684;10.806;2023-05-19T00:00:22;93567.97;;;5.59;nan
16738;BME280;17906;47.684;10.806;2023-05-19T00:02:49;93569.00;;;5.65;nan
16738;BME280;17906;47.684;10.806;2023-05-19T00:05:18;93564.66;;;5.64;nan
16738;BME280;17906;47.684;10.806;2023-05-19T00:07:45;93563.84;;;5.63;nan
16738;BME280;17906;47.684;10.806;2023-05-19T00:10:13;93548.69;;;5.62;nan
16738;BME280;17906;47.684;10.806;2023-05-19T00:12:40;93553.47;;;5.60;nan
16738;BME280;17906;47.684;10.806;2023-05-19T00:15:09;93553.47;;;5.60;nan
16738;BME280;17906;47.684;10.806;2023-05-19T00:17:35;93554.06;;;5.69;nan
16738;BME280;17906;47.684;10.806;2023-05-19T00:20:03;93554.50;;;5.66;nan
16738;BME280;17906;47.684;10.806;2023-05-19T00:22:33;93549.97;;;5.66;nan
16738;BME280;17906;47.684;10.806;2023-05-19T00:25:01;93549.16;;;5.52;nan
16738;BME280;17906;47.684;10.806;2023-05-19T00:27:28;93543.31;;;5.62;nan
16738;BME280;17906;47.684;10.806;2023-05-19T00:29:54;93541.94;;;5.53;nan
16738;BME280;17906;47.684;10.806;2023-05-19T00:32:21;93545.44;;;5.53;nan
16738;BME280;17906;47.684;10.806;2023-05-19T00:34:47;93546.06;;;5.49;nan
16738;BME280;17906;47.684;10.806;2023-05-19T00:37:14;93547.91;;;5.48;nan
16738;BME280;17906;47.684;10.806;2023-05-19T00:39:41;93554.13;;;5.49;nan
16738;BME280;17906;47.684;10.806;2023-05-19T00:42:08;93544.41;;;5.48;nan
16738;BME280;17906;47.684;10.806;2023-05-19T00:44:36;93543.38;;;5.49;nan
16738;BME280;17906;47.684;10.806;2023-05-19T00:47:05;93545.44;;;5.47;nan
16738;BME280;17906;47.684;10.806;2023-05-19T00:49:32;93545.00;;;5.50;nan
16738;BME280;17906;47.684;10.806;2023-05-19T00:52:00;93527.66;;;5.46;nan
16738;BME280;17906;47.684;10.806;2023-05-19T00:54:26;93536.75;;;5.45;nan
16738;BME280;17906;47.684;10.806;2023-05-19T00:56:55;93536.97;;;5.37;nan
16738;BME280;17906;47.684;10.806;2023-05-19T00:59:22;93536.75;;;5.45;nan
16738;BME280;17906;47.684;10.806;2023-05-19T01:01:49;93527.66;;;5.39;nan
16738;BME280;17906;47.684;10.806;2023-05-19T01:04:17;93515.25;;;5.38;nan
16738;BME280;17906;47.684;10.806;2023-05-19T01:06:45;93521.88;;;5.36;nan
16738;BME280;17906;47.684;10.806;2023-05-19T01:09:12;93512.78;;;5.37;nan
16738;BME280;17906;47.684;10.806;2023-05-19T01:11:38;93516.31;;;5.24;nan
16738;BME280;17906;47.684;10.806;2023-05-19T01:14:06;93508.88;;;5.33;nan
16738;BME280;17906;47.684;10.806;2023-05-19T01:16:36;93519.63;;;5.26;nan
16738;BME280;17906;47.684;10.806;2023-05-19T01:19:13;93514.47;;;5.24;nan
16738;BME280;17906;47.684;10.806;2023-05-19T01:22:11;93511.38;;;5.21;nan
16738;BME280;17906;47.684;10.806;2023-05-19T01:25:21;93511.78;;;5.11;nan
16738;BME280;17906;47.684;10.806;2023-05-19T01:28:24;93514.28;;;5.19;nan
16738;BME280;17906;47.684;10.806;2023-05-19T01:30:55;93523.56;;;5.17;nan
16738;BME280;17906;47.684;10.806;2023-05-19T01:33:24;93520.66;;;5.18;nan
16738;BME280;17906;47.684;10.806;2023-05-19T01:35:52;93513.44;;;5.12;nan
16738;BME280;17906;47.684;10.806;2023-05-19T01:38:20;93522.34;;;5.13;nan
16738;BME280;17906;47.684;10.806;2023-05-19T01:40:49;93516.75;;;5.14;nan
16738;BME280;17906;47.684;10.806;2023-05-19T01:43:19;93516.75;;;5.14;nan
16738;BME280;17906;47.684;10.806;2023-05-19T01:45:46;93507.84;;;5.07;nan
16738;BME280;17906;47.684;10.806;2023-05-19T01:48:15;93517.34;;;5.16;nan
16738;BME280;17906;47.684;10.806;2023-05-19T01:50:43;93520.25;;;5.15;nan
16738;BME280;17906;47.684;10.806;2023-05-19T01:53:10;93512.19;;;5.15;nan
16738;BME280;17906;47.684;10.806;2023-05-19T01:55:42;93510.97;;;5.11;nan
16738;BME280;17906;47.684;10.806;2023-05-19T01:58:15;93503.13;;;5.09;nan
16738;BME280;17906;47.684;10.806;2023-05-19T02:00:52;93508.06;;;5.12;nan
16738;BME280;17906;47.684;10.806;2023-05-19T02:03:36;93502.91;;;5.04;nan
16738;BME280;17906;47.684;10.806;2023-05-19T02:06:17;93504.16;;;5.08;nan
16738;BME280;17906;47.684;10.806;2023-05-19T02:08:52;93505.00;;;5.09;nan
16738;BME280;17906;47.684;10.806;2023-05-19T02:11:27;93502.69;;;5.06;nan
16738;BME280;17906;47.684;10.806;2023-05-19T02:13:56;93505.38;;;5.06;nan
16738;BME280;17906;47.684;10.806;2023-05-19T02:16:27;93504.56;;;5.05;nan
16738;BME280;17906;47.684;10.806;2023-05-19T02:18:55;93505.38;;;5.06;nan
16738;BME280;17906;47.684;10.806;2023-05-19T02:21:23;93497.09;;;5.07;nan
16738;BME280;17906;47.684;10.806;2023-05-19T02:23:50;93503.72;;;5.05;nan
16738;BME280;17906;47.684;10.806;2023-05-19T02:26:16;93502.28;;;5.02;nan
16738;BME280;17906;47.684;10.806;2023-05-19T02:28:43;93506.03;;;5.01;nan
16738;BME280;17906;47.684;10.806;2023-05-19T02:31:09;93503.75;;;4.98;nan
16738;BME280;17906;47.684;10.806;2023-05-19T02:33:35;93496.69;;;4.97;nan
16738;BME280;17906;47.684;10.806;2023-05-19T02:36:04;93501.47;;;4.95;nan
16738;BME280;17906;47.684;10.806;2023-05-19T02:38:31;93499.00;;;5.00;nan
16738;BME280;17906;47.684;10.806;2023-05-19T02:40:57;93495.91;;;4.90;nan
16738;BME280;17906;47.684;10.806;2023-05-19T02:43:24;93500.25;;;4.91;nan
16738;BME280;17906;47.684;10.806;2023-05-19T02:45:50;93495.91;;;4.90;nan
16738;BME280;17906;47.684;10.806;2023-05-19T02:48:17;93500.22;;;4.84;nan
16738;BME280;17906;47.684;10.806;2023-05-19T02:50:43;93502.50;;;4.81;nan
16738;BME280;17906;47.684;10.806;2023-05-19T02:53:11;93493.84;;;4.79;nan
16738;BME280;17906;47.684;10.806;2023-05-19T02:55:37;93493.44;;;4.68;nan
16738;BME280;17906;47.684;10.806;2023-05-19T02:58:04;93496.72;;;4.64;nan
16738;BME280;17906;47.684;10.806;2023-05-19T03:00:30;93499.63;;;4.69;nan
16738;BME280;17906;47.684;10.806;2023-05-19T03:02:57;93499.59;;;4.62;nan
16738;BME280;17906;47.684;10.806;2023-05-19T03:05:26;93489.69;;;4.63;nan
16738;BME280;17906;47.684;10.806;2023-05-19T03:07:53;93488.66;;;4.57;nan
16738;BME280;17906;47.684;10.806;2023-05-19T03:10:22;93483.09;;;4.65;nan
16738;BME280;17906;47.684;10.806;2023-05-19T03:12:48;93482.66;;;4.62;nan
16738;BME280;17906;47.684;10.806;2023-05-19T03:15:15;93486.41;;;4.67;nan
16738;BME280;17906;47.684;10.806;2023-05-19T03:17:42;93481.84;;;4.75;nan
16738;BME280;17906;47.684;10.806;2023-05-19T03:20:10;93478.13;;;4.69;nan
16738;BME280;17906;47.684;10.806;2023-05-19T03:22:36;93475.66;;;4.61;nan
16738;BME280;17906;47.684;10.806;2023-05-19T03:25:03;93482.47;;;4.57;nan
16738;BME280;17906;47.684;10.806;2023-05-19T03:27:31;93476.69;;;4.60;nan
16738;BME280;17906;47.684;10.806;2023-05-19T03:29:57;93479.59;;;4.65;nan
16738;BME280;17906;47.684;10.806;2023-05-19T03:32:24;93478.34;;;4.67;nan
16738;BME280;17906;47.684;10.806;2023-05-19T03:34:50;59087.34;;;-146.04;100.00
16738;BME280;17906;47.684;10.806;2023-05-19T03:37:17;93485.16;;;4.57;nan
16738;BME280;17906;47.684;10.806;2023-05-19T03:39:43;93481.22;;;4.53;nan
16738;BME280;17906;47.684;10.806;2023-05-19T03:42:10;93480.00;;;4.55;nan
16738;BME280;17906;47.684;10.806;2023-05-19T03:44:38;93483.28;;;4.44;nan
16738;BME280;17906;47.684;10.806;2023-05-19T03:47:04;93483.28;;;4.44;nan
16738;BME280;17906;47.684;10.806;2023-05-19T03:49:31;93482.66;;;4.42;nan
16738;BME280;17906;47.684;10.806;2023-05-19T03:51:57;93479.78;;;4.44;nan
16738;BME280;17906;47.684;10.806;2023-05-19T03:54:27;93475.84;;;4.39;nan
16738;BME280;17906;47.684;10.806;2023-05-19T03:56:53;93481.00;;;4.41;nan
16738;BME280;17906;47.684;10.806;2023-05-19T03:59:20;93486.56;;;4.39;nan
16738;BME280;17906;47.684;10.806;2023-05-19T04:01:49;93485.34;;;4.35;nan
16738;BME280;17906;47.684;10.806;2023-05-19T04:04:15;93479.53;;;4.32;nan
16738;BME280;17906;47.684;10.806;2023-05-19T04:06:42;93477.91;;;4.37;nan
16738;BME280;17906;47.684;10.806;2023-05-19T04:09:10;93478.72;;;4.38;nan
16738;BME280;17906;47.684;10.806;2023-05-19T04:11:37;93477.09;;;4.44;nan
16738;BME280;17906;47.684;10.806;2023-05-19T04:14:04;93476.91;;;4.58;nan
16738;BME280;17906;47.684;10.806;2023-05-19T04:16:31;93482.25;;;4.58;nan
16738;BME280;17906;47.684;10.806;2023-05-19T04:18:59;93471.53;;;4.65;nan
16738;BME280;17906;47.684;10.806;2023-05-19T04:21:25;93481.41;;;4.64;nan
16738;BME280;17906;47.684;10.806;2023-05-19T04:23:52;93478.56;;;4.66;nan
16738;BME280;17906;47.684;10.806;2023-05-19T04:26:19;93476.69;;;4.73;nan
16738;BME280;17906;47.684;10.806;2023-05-19T04:28:47;93482.66;;;4.62;nan
16738;BME280;17906;47.684;10.806;2023-05-19T04:31:13;93475.66;;;4.67;nan
16738;BME280;17906;47.684;10.806;2023-05-19T04:33:40;93481.22;;;4.73;nan
16738;BME280;17906;47.684;10.806;2023-05-19T04:36:08;93476.88;;;4.72;nan
16738;BME280;17906;47.684;10.806;2023-05-19T04:38:35;93477.91;;;4.64;nan
16738;BME280;17906;47.684;10.806;2023-05-19T04:41:04;93481.22;;;4.73;nan
16738;BME280;17906;47.684;10.806;2023-05-19T04:43:34;93476.91;;;4.65;nan
16738;BME280;17906;47.684;10.806;2023-05-19T04:46:01;93479.59;;;4.58;nan
16738;BME280;17906;47.684;10.806;2023-05-19T04:48:30;93486.38;;;4.61;nan
16738;BME280;17906;47.684;10.806;2023-05-19T04:50:57;93484.94;;;4.58;nan
16738;BME280;17906;47.684;10.806;2023-05-19T04:53:27;93484.53;;;4.61;nan
16738;BME280;17906;47.684;10.806;2023-05-19T04:55:53;93491.16;;;4.72;nan
16738;BME280;17906;47.684;10.806;2023-05-19T04:58:20;93488.66;;;4.71;nan
16738;BME280;17906;47.684;10.806;2023-05-19T05:00:49;93485.97;;;4.51;nan
16738;BME280;17906;47.684;10.806;2023-05-19T05:03:16;93492.59;;;4.61;nan
16738;BME280;17906;47.684;10.806;2023-05-19T05:05:42;93488.66;;;4.57;nan
16738;BME280;17906;47.684;10.806;2023-05-19T05:08:09;93489.69;;;4.56;nan
16738;BME280;17906;47.684;10.806;2023-05-19T05:10:37;93477.94;;;4.57;nan
16738;BME280;17906;47.684;10.806;2023-05-19T05:13:04;93479.78;;;4.50;nan
16738;BME280;17906;47.684;10.806;2023-05-19T05:15:31;93482.47;;;4.57;nan
16738;BME280;17906;47.684;10.806;2023-05-19T05:17:58;93485.16;;;4.57;nan
16738;BME280;17906;47.684;10.806;2023-05-19T05:20:25;93484.53;;;4.75;nan
16738;BME280;17906;47.684;10.806;2023-05-19T05:22:52;93482.28;;;4.65;nan
16738;BME280;17906;47.684;10.806;2023-05-19T05:25:20;93483.53;;;4.76;nan
16738;BME280;17906;47.684;10.806;2023-05-19T05:27:48;93481.25;;;4.79;nan
16738;BME280;17906;47.684;10.806;2023-05-19T05:30:14;93494.66;;;4.73;nan
16738;BME280;17906;47.684;10.806;2023-05-19T05:32:41;93491.75;;;4.74;nan
16738;BME280;17906;47.684;10.806;2023-05-19T05:35:08;93483.09;;;4.72;nan
16738;BME280;17906;47.684;10.806;2023-05-19T05:37:34;93490.31;;;4.78;nan
16738;BME280;17906;47.684;10.806;2023-05-19T05:40:01;93491.56;;;4.69;nan
16738;BME280;17906;47.684;10.806;2023-05-19T05:42:28;93493.22;;;4.77;nan
16738;BME280;17906;47.684;10.806;2023-05-19T05:44:56;93494.25;;;4.76;nan
16738;BME280;17906;47.684;10.806;2023-05-19T05:47:23;93500.66;;;4.81;nan
16738;BME280;17906;47.684;10.806;2023-05-19T05:49:50;93493.41;;;4.75;nan
16738;BME280;17906;47.684;10.806;2023-05-19T05:52:17;93495.91;;;4.77;nan
16738;BME280;17906;47.684;10.806;2023-05-19T05:54:46;93488.88;;;4.76;nan
16738;BME280;17906;47.684;10.806;2023-05-19T05:57:13;93483.09;;;4.79;nan
16738;BME280;17906;47.684;10.806;2023-05-19T05:59:40;93489.69;;;4.83;nan
16738;BME280;17906;47.684;10.806;2023-05-19T06:02:08;93491.31;;;4.97;nan
16738;BME280;17906;47.684;10.806;2023-05-19T06:04:35;93490.31;;;4.85;nan
16738;BME280;17906;47.684;10.806;2023-05-19T06:07:01;93496.72;;;4.84;nan
16738;BME280;17906;47.684;10.806;2023-05-19T06:09:27;93492.16;;;4.84;nan
16738;BME280;17906;47.684;10.806;2023-05-19T06:11:56;93493.41;;;4.95;nan
16738;BME280;17906;47.684;10.806;2023-05-19T06:14:23;93496.50;;;5.05;nan
16738;BME280;17906;47.684;10.806;2023-05-19T06:16:49;93490.94;;;5.00;nan
16738;BME280;17906;47.684;10.806;2023-05-19T06:19:18;93501.25;;;5.03;nan
16738;BME280;17906;47.684;10.806;2023-05-19T06:21:45;93486.56;;;5.12;nan
16738;BME280;17906;47.684;10.806;2023-05-19T06:24:11;93497.94;;;5.21;nan
16738;BME280;17906;47.684;10.806;2023-05-19T06:26:37;93487.97;;;5.35;nan
16738;BME280;17906;47.684;10.806;2023-05-19T06:29:04;93497.28;;;5.32;nan
16738;BME280;17906;47.684;10.806;2023-05-19T06:31:30;93490.03;;;5.46;nan
16738;BME280;17906;47.684;10.806;2023-05-19T06:33:57;93489.81;;;5.47;nan
16738;BME280;17906;47.684;10.806;2023-05-19T06:36:25;93490.22;;;5.44;nan
16738;BME280;17906;47.684;10.806;2023-05-19T06:38:52;93494.75;;;5.57;nan
16738;BME280;17906;47.684;10.806;2023-05-19T06:41:18;93492.00;;;5.70;nan
16738;BME280;17906;47.684;10.806;2023-05-19T06:43:45;93496.59;;;5.63;nan
16738;BME280;17906;47.684;10.806;2023-05-19T06:46:12;93493.47;;;5.66;nan
16738;BME280;17906;47.684;10.806;2023-05-19T06:48:38;93498.81;;;5.73;nan
16738;BME280;17906;47.684;10.806;2023-05-19T06:51:05;93491.78;;;5.72;nan
16738;BME280;17906;47.684;10.806;2023-05-19T06:53:33;93507.09;;;5.71;nan
16738;BME280;17906;47.684;10.806;2023-05-19T06:56:00;93504.63;;;5.76;nan
16738;BME280;17906;47.684;10.806;2023-05-19T06:58:26;93502.53;;;5.78;nan
16738;BME280;17906;47.684;10.806;2023-05-19T07:00:53;93497.59;;;5.75;nan
16738;BME280;17906;47.684;10.806;2023-05-19T07:03:19;93494.47;;;5.72;nan
16738;BME280;17906;47.684;10.806;2023-05-19T07:05:46;93499.84;;;5.72;nan
16738;BME280;17906;47.684;10.806;2023-05-19T07:08:12;93499.47;;;5.68;nan
16738;BME280;17906;47.684;10.806;2023-05-19T07:10:40;93495.97;;;5.61;nan
16738;BME280;17906;47.684;10.806;2023-05-19T07:13:07;93495.94;;;5.68;nan
16738;BME280;17906;47.684;10.806;2023-05-19T07:15:33;93498.19;;;5.84;nan
16738;BME280;17906;47.684;10.806;2023-05-19T07:18:00;93493.56;;;5.91;nan
16738;BME280;17906;47.684;10.806;2023-05-19T07:20:26;93493.97;;;5.95;nan
16738;BME280;17906;47.684;10.806;2023-05-19T07:22:53;93492.97;;;5.96;nan
16738;BME280;17906;47.684;10.806;2023-05-19T07:25:19;93487.31;;;6.10;nan
16738;BME280;17906;47.684;10.806;2023-05-19T07:27:47;93491.47;;;6.00;nan
16738;BME280;17906;47.684;10.806;2023-05-19T07:30:13;93492.75;;;5.97;nan
16738;BME280;17906;47.684;10.806;2023-05-19T07:32:40;93491.47;;;6.00;nan
16738;BME280;17906;47.684;10.806;2023-05-19T07:35:07;93490.00;;;6.04;nan
16738;BME280;17906;47.684;10.806;2023-05-19T07:37:33;93494.38;;;6.05;nan
16738;BME280;17906;47.684;10.806;2023-05-19T07:40:00;93486.91;;;6.00;nan
16738;BME280;17906;47.684;10.806;2023-05-19T07:42:26;93493.34;;;6.06;nan
16738;BME280;17906;47.684;10.806;2023-05-19T07:44:54;93495.59;;;6.09;nan
16738;BME280;17906;47.684;10.806;2023-05-19T07:47:21;93490.38;;;6.21;nan
16738;BME280;17906;47.684;10.806;2023-05-19T07:49:47;93494.25;;;6.31;nan
16738;BME280;17906;47.684;10.806;2023-05-19T07:52:14;93493.44;;;6.24;nan
16738;BME280;17906;47.684;10.806;2023-05-19T07:54:42;93485.38;;;6.24;nan
16738;BME280;17906;47.684;10.806;2023-05-19T07:57:09;93494.06;;;6.26;nan
16738;BME280;17906;47.684;10.806;2023-05-19T07:59:35;93491.16;;;6.28;nan
16738;BME280;17906;47.684;10.806;2023-05-19T08:02:03;93488.38;;;6.41;nan
16738;BME280;17906;47.684;10.806;2023-05-19T08:04:30;93483.13;;;6.53;nan
16738;BME280;17906;47.684;10.806;2023-05-19T08:06:57;93485.00;;;6.52;nan
16738;BME280;17906;47.684;10.806;2023-05-19T08:09:23;93488.06;;;6.56;nan
16738;BME280;17906;47.684;10.806;2023-05-19T08:11:50;93486.16;;;6.63;nan
16738;BME280;17906;47.684;10.806;2023-05-19T08:14:16;93477.13;;;6.82;nan
16738;BME280;17906;47.684;10.806;2023-05-19T08:16:43;93474.09;;;6.97;nan
16738;BME280;17906;47.684;10.806;2023-05-19T08:19:12;93474.03;;;7.04;nan
16738;BME280;17906;47.684;10.806;2023-05-19T08:21:38;93478.56;;;7.03;nan
16738;BME280;17906;47.684;10.806;2023-05-19T08:24:06;93478.53;;;7.10;nan
16738;BME280;17906;47.684;10.806;2023-05-19T08:26:33;93474.66;;;7.24;nan
16738;BME280;17906;47.684;10.806;2023-05-19T08:28:59;93487.53;;;7.22;nan
16738;BME280;17906;47.684;10.806;2023-05-19T08:31:26;93477.94;;;7.08;nan
16738;BME280;17906;47.684;10.806;2023-05-19T08:33:52;93483.47;;;7.13;nan
16738;BME280;17906;47.684;10.806;2023-05-19T08:36:20;93484.09;;;7.15;nan
16738;BME280;17906;47.684;10.806;2023-05-19T08:38:46;93468.63;;;7.28;nan
16738;BME280;17906;47.684;10.806;2023-05-19T08:41:13;93479.41;;;7.28;nan
16738;BME280;17906;47.684;10.806;2023-05-19T08:43:40;93470.81;;;7.38;nan
16738;BME280;17906;47.684;10.806;2023-05-19T08:46:09;93471.34;;;7.47;nan
16738;BME280;17906;47.684;10.806;2023-05-19T08:48:41;93462.03;;;7.61;nan
16738;BME280;17906;47.684;10.806;2023-05-19T08:51:12;93462.47;;;7.76;nan
16738;BME280;17906;47.684;10.806;2023-05-19T08:53:47;93456.13;;;7.52;nan
16738;BME280;17906;47.684;10.806;2023-05-19T08:56:19;93473.00;;;7.48;nan
16738;BME280;17906;47.684;10.806;2023-05-19T08:58:48;93464.97;;;7.60;nan
16738;BME280;17906;47.684;10.806;2023-05-19T09:01:15;93462.41;;;7.65;nan
16738;BME280;17906;47.684;10.806;2023-05-19T09:03:42;93463.31;;;7.58;nan
16738;BME280;17906;47.684;10.806;2023-05-19T09:06:09;93466.81;;;7.41;nan
16738;BME280;17906;47.684;10.806;2023-05-19T09:08:38;93462.19;;;7.48;nan
16738;BME280;17906;47.684;10.806;2023-05-19T09:11:06;93464.44;;;7.51;nan
16738;BME280;17906;47.684;10.806;2023-05-19T09:13:32;93455.22;;;7.58;nan
16738;BME280;17906;47.684;10.806;2023-05-19T09:15:59;93464.22;;;7.71;nan
16738;BME280;17906;47.684;10.806;2023-05-19T09:18:26;93460.00;;;7.75;nan
16738;BME280;17906;47.684;10.806;2023-05-19T09:20:55;93448.75;;;7.78;nan
16738;BME280;17906;47.684;10.806;2023-05-19T09:23:26;93458.19;;;7.87;nan
16738;BME280;17906;47.684;10.806;2023-05-19T09:25:54;93454.00;;;8.09;nan
16738;BME280;17906;47.684;10.806;2023-05-19T09:28:24;93454.50;;;8.18;nan
16738;BME280;17906;47.684;10.806;2023-05-19T09:30:58;93450.81;;;8.31;nan
16738;BME280;17906;47.684;10.806;2023-05-19T09:33:24;93463.09;;;8.45;nan
16738;BME280;17906;47.684;10.806;2023-05-19T09:35:52;93450.41;;;8.46;nan
16738;BME280;17906;47.684;10.806;2023-05-19T09:38:19;93444.84;;;8.40;nan
16738;BME280;17906;47.684;10.806;2023-05-19T09:40:47;93452.88;;;8.47;nan
16738;BME280;17906;47.684;10.806;2023-05-19T09:43:14;93443.44;;;8.38;nan
16738;BME280;17906;47.684;10.806;2023-05-19T09:45:43;93445.13;;;8.51;nan
16738;BME280;17906;47.684;10.806;2023-05-19T09:48:09;93441.63;;;8.62;nan
16738;BME280;17906;47.684;10.806;2023-05-19T09:50:36;93441.53;;;8.68;nan
16738;BME280;17906;47.684;10.806;2023-05-19T09:53:03;93449.63;;;8.57;nan
16738;BME280;17906;47.684;10.806;2023-05-19T09:55:29;93434.66;;;8.54;nan
16738;BME280;17906;47.684;10.806;2023-05-19T09:57:57;93437.22;;;8.37;nan
16738;BME280;17906;47.684;10.806;2023-05-19T10:00:28;93447.84;;;8.62;nan
16738;BME280;17906;47.684;10.806;2023-05-19T10:02:58;93449.50;;;8.63;nan
16738;BME280;17906;47.684;10.806;2023-05-19T10:05:26;93435.56;;;8.78;nan
16738;BME280;17906;47.684;10.806;2023-05-19T10:07:54;93438.97;;;8.85;nan
16738;BME280;17906;47.684;10.806;2023-05-19T10:10:21;93434.94;;;8.76;nan
16738;BME280;17906;47.684;10.806;2023-05-19T10:12:48;93434.13;;;8.87;nan
16738;BME280;17906;47.684;10.806;2023-05-19T10:15:17;93430.03;;;8.96;nan
16738;BME280;17906;47.684;10.806;2023-05-19T10:17:44;93425.94;;;9.06;nan
16738;BME280;17906;47.684;10.806;2023-05-19T10:20:13;93422.41;;;9.17;nan
16738;BME280;17906;47.684;10.806;2023-05-19T10:22:41;93431.56;;;9.39;nan
16738;BME280;17906;47.684;10.806;2023-05-19T10:25:09;93425.47;;;9.67;nan
16738;BME280;17906;47.684;10.806;2023-05-19T10:27:42;93420.50;;;9.87;nan
16738;BME280;17906;47.684;10.806;2023-05-19T10:30:14;93410.22;;;9.89;nan
16738;BME280;17906;47.684;10.806;2023-05-19T10:32:42;93427.63;;;9.94;nan
16738;BME280;17906;47.684;10.806;2023-05-19T10:35:35;93414.53;;;10.02;nan
16738;BME280;17906;47.684;10.806;2023-05-19T10:38:11;93413.13;;;10.28;nan
16738;BME280;17906;47.684;10.806;2023-05-19T10:40:43;93410.16;;;10.41;nan
16738;BME280;17906;47.684;10.806;2023-05-19T10:43:24;93412.03;;;10.86;nan
16738;BME280;17906;47.684;10.806;2023-05-19T10:45:56;93400.19;;;11.26;nan
16738;BME280;17906;47.684;10.806;2023-05-19T10:48:22;93386.91;;;11.46;nan
16738;BME280;17906;47.684;10.806;2023-05-19T10:50:53;93386.91;;;11.46;nan
16738;BME280;17906;47.684;10.806;2023-05-19T10:53:20;93393.25;;;11.52;nan
16738;BME280;17906;47.684;10.806;2023-05-19T10:55:50;93395.44;;;11.94;nan
16738;BME280;17906;47.684;10.806;2023-05-19T10:58:37;93384.63;;;12.20;nan
16738;BME280;17906;47.684;10.806;2023-05-19T11:01:09;93379.44;;;11.97;nan
16738;BME280;17906;47.684;10.806;2023-05-19T11:03:45;93388.03;;;11.89;nan
16738;BME280;17906;47.684;10.806;2023-05-19T11:06:34;93385.44;;;12.21;nan
16738;BME280;17906;47.684;10.806;2023-05-19T11:09:10;93384.31;;;12.44;nan
16738;BME280;17906;47.684;10.806;2023-05-19T11:11:45;93387.13;;;12.49;nan
16738;BME280;17906;47.684;10.806;2023-05-19T11:14:14;59087.34;;;-146.04;100.00
16738;BME280;17906;47.684;10.806;2023-05-19T11:16:41;59087.34;;;-146.04;100.00
16738;BME280;17906;47.684;10.806;2023-05-19T11:19:16;59087.34;;;-146.04;100.00
16738;BME280;17906;47.684;10.806;2023-05-19T11:21:49;59087.34;;;-146.04;100.00
16738;BME280;17906;47.684;10.806;2023-05-19T11:24:32;59087.34;;;-146.04;100.00
16738;BME280;17906;47.684;10.806;2023-05-19T11:26:59;59087.34;;;-146.04;100.00
16738;BME280;17906;47.684;10.806;2023-05-19T11:29:42;59087.34;;;-146.04;100.00
16738;BME280;17906;47.684;10.806;2023-05-19T11:32:09;59087.34;;;-146.04;100.00
16738;BME280;17906;47.684;10.806;2023-05-19T11:34:36;59087.34;;;-146.04;100.00
16738;BME280;17906;47.684;10.806;2023-05-19T11:37:05;59087.34;;;-146.04;100.00
16738;BME280;17906;47.684;10.806;2023-05-19T11:39:31;59087.34;;;-146.04;100.00
16738;BME280;17906;47.684;10.806;2023-05-19T11:41:58;93392.53;;;11.23;nan
16738;BME280;17906;47.684;10.806;2023-05-19T11:44:24;93392.03;;;11.26;nan
16738;BME280;17906;47.684;10.806;2023-05-19T11:46:51;93384.31;;;11.34;nan
16738;BME280;17906;47.684;10.806;2023-05-19T11:49:18;93393.72;;;11.27;nan
16738;BME280;17906;47.684;10.806;2023-05-19T11:51:45;93399.13;;;11.10;nan
16738;BME280;17906;47.684;10.806;2023-05-19T11:54:13;93384.19;;;11.08;nan
16738;BME280;17906;47.684;10.806;2023-05-19T11:56:40;93394.47;;;11.06;nan
16738;BME280;17906;47.684;10.806;2023-05-19T11:59:07;93386.06;;;11.07;nan
16738;BME280;17906;47.684;10.806;2023-05-19T12:01:34;93401.94;;;10.98;nan
16738;BME280;17906;47.684;10.806;2023-05-19T12:04:01;93389.03;;;11.06;nan
16738;BME280;17906;47.684;10.806;2023-05-19T12:06:27;93394.13;;;11.19;nan
16738;BME280;17906;47.684;10.806;2023-05-19T12:08:54;93387.38;;;11.21;nan
16738;BME280;17906;47.684;10.806;2023-05-19T12:11:22;93377.44;;;11.27;nan
16738;BME280;17906;47.684;10.806;2023-05-19T12:13:49;93382.25;;;11.25;nan
16738;BME280;17906;47.684;10.806;2023-05-19T12:16:19;93380.63;;;11.24;nan
16738;BME280;17906;47.684;10.806;2023-05-19T12:18:45;93367.34;;;11.44;nan
16738;BME280;17906;47.684;10.806;2023-05-19T12:21:12;93366.78;;;11.42;nan
16738;BME280;17906;47.684;10.806;2023-05-19T12:23:38;93369.84;;;11.29;nan
16738;BME280;17906;47.684;10.806;2023-05-19T12:26:05;93372.81;;;11.27;nan
16738;BME280;17906;47.684;10.806;2023-05-19T12:28:34;93366.97;;;11.57;nan
16738;BME280;17906;47.684;10.806;2023-05-19T12:31:01;93375.47;;;11.61;nan
16738;BME280;17906;47.684;10.806;2023-05-19T12:33:28;93372.09;;;11.54;nan
16738;BME280;17906;47.684;10.806;2023-05-19T12:35:54;93375.78;;;11.48;nan
16738;BME280;17906;47.684;10.806;2023-05-19T12:38:21;93376.31;;;11.45;nan
16738;BME280;17906;47.684;10.806;2023-05-19T12:40:48;93371.28;;;11.53;nan
16738;BME280;17906;47.684;10.806;2023-05-19T12:43:18;93374.41;;;11.45;nan
16738;BME280;17906;47.684;10.806;2023-05-19T12:45:46;93362.84;;;11.33;nan
16738;BME280;17906;47.684;10.806;2023-05-19T12:48:13;93371.41;;;11.25;nan
16738;BME280;17906;47.684;10.806;2023-05-19T12:50:41;93376.41;;;11.33;nan
16738;BME280;17906;47.684;10.806;2023-05-19T12:53:09;93376.84;;;11.25;nan
16738;BME280;17906;47.684;10.806;2023-05-19T12:55:37;93368.34;;;11.38;nan
16738;BME280;17906;47.684;10.806;2023-05-19T12:58:06;93373.53;;;11.23;nan
16738;BME280;17906;47.684;10.806;2023-05-19T13:00:32;93382.59;;;11.12;nan
16738;BME280;17906;47.684;10.806;2023-05-19T13:03:02;93375.94;;;11.02;nan
16738;BME280;17906;47.684;10.806;2023-05-19T13:05:30;93375.47;;;11.06;nan
16738;BME280;17906;47.684;10.806;2023-05-19T13:07:59;93376.19;;;11.01;nan
16738;BME280;17906;47.684;10.806;2023-05-19T13:10:26;93380.38;;;10.75;nan
16738;BME280;17906;47.684;10.806;2023-05-19T13:12:53;93385.63;;;10.65;nan
16738;BME280;17906;47.684;10.806;2023-05-19T13:15:21;93373.84;;;10.42;nan
16738;BME280;17906;47.684;10.806;2023-05-19T13:17:48;93380.41;;;10.46;nan
16738;BME280;17906;47.684;10.806;2023-05-19T13:20:16;93382.00;;;10.42;nan
16738;BME280;17906;47.684;10.806;2023-05-19T13:22:42;93382.94;;;10.36;nan